createdAt,value
2022-08-05T00:01:30.000Z,25.05
2022-08-05T00:04:03.216Z,24.85
2022-08-05T00:06:33.445Z,24.86
2022-08-05T00:09:03.591Z,25.26
2022-08-05T00:11:35.213Z,25.13
2022-08-05T00:14:16.902Z,24.74
2022-08-05T00:16:52.896Z,24.67
2022-08-05T00:19:22.214Z,25.15
2022-08-05T00:21:49.388Z,24.54
2022-08-05T00:24:16.243Z,24.53
2022-08-05T00:26:51.759Z,24.87
2022-08-05T00:29:18.905Z,24.38
2022-08-05T00:32:10.162Z,23.87
2022-08-05T00:34:54.018Z,24.33
2022-08-05T00:37:22.411Z,24.61
2022-08-05T00:39:58.001Z,24.75
2022-08-05T00:42:37.037Z,24.73
2022-08-05T00:45:08.564Z,24.39
2022-08-05T00:47:53.331Z,24.79
2022-08-05T00:50:22.187Z,24.55
2022-08-05T00:52:53.263Z,24.38
2022-08-05T00:55:19.903Z,24.32
2022-08-05T00:57:58.594Z,24.59
2022-08-05T01:00:28.161Z,24.02
2022-08-05T01:02:55.450Z,24.28
2022-08-05T01:05:22.756Z,23.88
2022-08-05T01:08:41.838Z,24.34
2022-08-05T01:10:41.634Z,24.43
2022-08-05T01:13:57.865Z,24.39
2022-08-05T01:16:52.296Z,23.85
2022-08-05T01:19:22.297Z,24.60
2022-08-05T01:22:23.969Z,24.52
2022-08-05T01:25:07.207Z,24.29
2022-08-05T01:28:18.227Z,24.26
2022-08-05T01:30:55.102Z,23.71
2022-08-05T01:33:25.372Z,24.06
2022-08-05T01:35:57.436Z,23.86
2022-08-05T01:38:29.340Z,23.85
2022-08-05T01:41:01.562Z,23.68
2022-08-05T01:43:29.639Z,23.52
2022-08-05T01:45:57.783Z,23.35
2022-08-05T01:48:29.730Z,23.18
2022-08-05T01:51:00.163Z,22.72
2022-08-05T01:53:57.419Z,22.37
2022-08-05T01:58:10.721Z,22.82
2022-08-05T01:59:21.549Z,22.74
2022-08-05T02:01:51.802Z,22.86
2022-08-05T02:04:24.029Z,22.62
2022-08-05T02:06:52.600Z,22.61
2022-08-05T02:09:20.640Z,22.75
2022-08-05T02:11:53.325Z,22.83
2022-08-05T02:14:32.348Z,22.72
2022-08-05T02:17:07.642Z,22.47
2022-08-05T02:19:50.843Z,22.39
2022-08-05T02:22:28.213Z,22.25
2022-08-05T02:25:18.252Z,22.59
2022-08-05T02:27:59.093Z,22.56
2022-08-05T02:30:32.450Z,22.54
2022-08-05T02:33:03.019Z,22.27
2022-08-05T02:35:37.838Z,22.30
2022-08-05T02:38:13.253Z,22.56
2022-08-05T02:40:46.519Z,22.64
2022-08-05T02:43:16.873Z,22.70
2022-08-05T02:45:52.912Z,22.76
2022-08-05T02:48:29.236Z,22.37
2022-08-05T02:50:59.648Z,22.74
2022-08-05T02:53:28.536Z,22.74
2022-08-05T02:56:06.819Z,22.47
2022-08-05T02:58:36.129Z,22.98
2022-08-05T03:01:02.965Z,22.85
2022-08-05T03:03:33.952Z,22.52
2022-08-05T03:06:54.484Z,22.23
2022-08-05T03:09:07.843Z,22.49
2022-08-05T03:11:55.420Z,22.07
2022-08-05T03:14:21.177Z,21.84
2022-08-05T03:16:47.666Z,21.87
2022-08-05T03:19:29.465Z,21.84
2022-08-05T03:22:00.842Z,21.86
2022-08-05T03:24:29.968Z,21.74
2022-08-05T03:26:58.885Z,21.90
2022-08-05T03:29:45.721Z,21.88
2022-08-05T03:32:14.307Z,21.89
2022-08-05T03:34:42.637Z,22.28
2022-08-05T03:37:18.731Z,22.32
2022-08-05T03:39:59.131Z,22.12
2022-08-05T03:42:29.119Z,22.05
2022-08-05T03:44:55.873Z,21.90
2022-08-05T03:47:24.046Z,21.89
2022-08-05T03:49:52.471Z,22.56
2022-08-05T03:52:48.835Z,21.80
2022-08-05T03:56:05.119Z,22.18
2022-08-05T03:58:10.745Z,22.34
2022-08-05T04:00:42.033Z,22.66
2022-08-05T04:03:14.996Z,22.50
2022-08-05T04:05:55.785Z,22.21
2022-08-05T04:08:35.011Z,22.43
2022-08-05T04:11:05.195Z,22.32
2022-08-05T04:13:51.008Z,22.38
2022-08-05T04:16:25.445Z,22.27
2022-08-05T04:19:00.143Z,22.38
2022-08-05T04:22:10.359Z,22.55
2022-08-05T04:24:18.736Z,22.42
2022-08-05T04:26:46.701Z,21.97
2022-08-05T04:29:13.422Z,21.58
2022-08-05T04:31:41.445Z,21.98
2022-08-05T04:34:18.311Z,22.91
2022-08-05T04:36:49.763Z,22.13
2022-08-05T04:39:18.207Z,22.60
2022-08-05T04:41:45.737Z,22.88
2022-08-05T04:44:12.740Z,22.39
2022-08-05T04:46:50.313Z,22.41
2022-08-05T04:49:39.212Z,21.73
2022-08-05T04:52:16.086Z,22.57
2022-08-05T04:54:42.671Z,22.51
2022-08-05T04:57:09.349Z,22.86
2022-08-05T04:59:40.493Z,22.43
2022-08-05T05:02:41.360Z,22.51
2022-08-05T05:05:01.781Z,22.47
2022-08-05T05:07:35.632Z,22.59
2022-08-05T05:10:05.473Z,23.00
2022-08-05T05:12:33.411Z,22.55
2022-08-05T05:15:03.575Z,22.38
2022-08-05T05:17:56.496Z,22.22
2022-08-05T05:20:26.579Z,22.34
2022-08-05T05:22:55.914Z,21.81
2022-08-05T05:25:33.034Z,22.36
2022-08-05T05:28:11.363Z,21.66
2022-08-05T05:30:38.966Z,22.41
2022-08-05T05:33:16.508Z,21.89
2022-08-05T05:35:47.701Z,22.47
2022-08-05T05:38:22.942Z,21.90
2022-08-05T05:41:00.229Z,22.51
2022-08-05T05:43:57.048Z,21.88
2022-08-05T05:46:17.756Z,21.97
2022-08-05T05:48:48.365Z,21.74
2022-08-05T05:51:50.038Z,22.36
2022-08-05T05:54:19.753Z,21.88
2022-08-05T05:56:48.314Z,21.53
2022-08-05T05:59:14.835Z,21.32
2022-08-05T06:01:57.588Z,21.09
2022-08-05T06:04:24.720Z,21.88
2022-08-05T06:06:51.249Z,21.54
2022-08-05T06:09:35.360Z,21.23
2022-08-05T06:12:05.957Z,21.37
2022-08-05T06:14:36.193Z,21.06
2022-08-05T06:17:22.597Z,21.41
2022-08-05T06:19:57.219Z,21.74
2022-08-05T06:22:30.594Z,21.76
2022-08-05T06:25:00.671Z,21.34
2022-08-05T06:28:12.750Z,20.98
2022-08-05T06:30:19.915Z,21.27
2022-08-05T06:32:48.630Z,21.98
2022-08-05T06:36:04.175Z,21.42
2022-08-05T06:38:11.455Z,21.97
2022-08-05T06:40:44.253Z,21.93
2022-08-05T06:43:58.654Z,21.90
2022-08-05T06:46:04.094Z,21.74
2022-08-05T06:48:53.621Z,21.47
2022-08-05T06:51:23.928Z,21.58
2022-08-05T06:53:54.742Z,21.35
2022-08-05T06:56:26.328Z,21.66
2022-08-05T06:58:53.523Z,21.03
2022-08-05T07:01:20.759Z,21.53
2022-08-05T07:03:49.676Z,22.12
2022-08-05T07:06:17.448Z,22.09
2022-08-05T07:08:47.526Z,20.99
2022-08-05T07:11:15.893Z,21.70
2022-08-05T07:14:01.605Z,21.77
2022-08-05T07:18:01.693Z,21.83
2022-08-05T07:22:28.631Z,21.55
2022-08-05T07:25:22.089Z,21.09
2022-08-05T07:27:57.949Z,21.74
2022-08-05T07:30:33.684Z,21.16
2022-08-05T07:33:09.206Z,21.16
2022-08-05T07:36:02.371Z,21.19
2022-08-05T07:38:34.399Z,21.14
2022-08-05T07:42:09.286Z,21.51
2022-08-05T07:43:57.958Z,20.98
2022-08-05T07:46:30.592Z,21.04
2022-08-05T07:49:05.828Z,20.89
2022-08-05T07:51:40.247Z,21.14
2022-08-05T07:54:10.497Z,21.47
2022-08-05T07:57:02.672Z,21.29
2022-08-05T07:59:38.967Z,20.81
2022-08-05T08:02:16.203Z,21.50
2022-08-05T08:04:45.116Z,21.13
2022-08-05T08:07:12.658Z,20.88
2022-08-05T08:09:39.110Z,20.83
2022-08-05T08:12:15.925Z,21.00
2022-08-05T08:14:53.115Z,20.34
2022-08-05T08:17:19.678Z,21.07
2022-08-05T08:20:22.899Z,21.21
2022-08-05T08:22:35.331Z,21.25
2022-08-05T08:25:03.038Z,21.15
2022-08-05T08:27:40.360Z,21.35
2022-08-05T08:30:28.520Z,21.18
2022-08-05T08:32:58.360Z,21.17
2022-08-05T08:35:35.173Z,21.40
2022-08-05T08:38:08.076Z,20.88
2022-08-05T08:40:35.883Z,21.51
2022-08-05T08:45:16.448Z,21.31
2022-08-05T08:45:54.143Z,22.04
2022-08-05T08:48:37.998Z,22.11
2022-08-05T08:51:54.593Z,21.75
2022-08-05T08:53:55.371Z,21.46
2022-08-05T08:56:23.520Z,21.62
2022-08-05T08:58:54.501Z,22.10
2022-08-05T09:01:21.647Z,21.54
2022-08-05T09:03:55.701Z,21.87
2022-08-05T09:06:37.338Z,22.01
2022-08-05T09:09:09.875Z,22.10
2022-08-05T09:11:51.836Z,21.59
2022-08-05T09:14:56.854Z,22.10
2022-08-05T09:17:41.417Z,22.13
2022-08-05T09:20:05.868Z,22.25
2022-08-05T09:23:37.446Z,22.50
2022-08-05T09:26:20.877Z,21.86
2022-08-05T09:28:48.730Z,22.46
2022-08-05T09:31:43.534Z,22.00
2022-08-05T09:34:05.852Z,22.27
2022-08-05T09:36:54.449Z,22.02
2022-08-05T09:39:41.298Z,22.54
2022-08-05T09:42:11.397Z,22.91
2022-08-05T09:44:50.588Z,22.19
2022-08-05T09:47:22.801Z,23.13
2022-08-05T09:50:00.681Z,23.14
2022-08-05T09:52:34.249Z,22.44
2022-08-05T09:55:56.545Z,23.30
2022-08-05T09:57:58.537Z,22.74
2022-08-05T10:00:25.939Z,22.79
2022-08-05T10:02:54.796Z,22.83
2022-08-05T10:05:27.647Z,23.19
2022-08-05T10:08:36.516Z,23.17
2022-08-05T10:10:50.253Z,23.00
2022-08-05T10:13:46.273Z,23.13
2022-08-05T10:16:41.912Z,23.28
2022-08-05T10:19:23.704Z,23.24
2022-08-05T10:22:09.100Z,23.11
2022-08-05T10:24:42.470Z,23.27
2022-08-05T10:27:14.261Z,23.48
2022-08-05T10:30:06.938Z,23.36
2022-08-05T10:32:54.069Z,23.67
2022-08-05T10:35:17.691Z,23.71
2022-08-05T10:37:45.301Z,24.08
2022-08-05T10:40:19.562Z,24.34
2022-08-05T10:42:50.557Z,23.38
2022-08-05T10:45:40.473Z,23.97
2022-08-05T10:48:36.114Z,24.58
2022-08-05T10:51:22.474Z,24.78
2022-08-05T10:54:00.907Z,24.77
2022-08-05T10:56:45.211Z,24.65
2022-08-05T11:00:02.988Z,24.75
2022-08-05T11:02:37.537Z,25.27
2022-08-05T11:05:05.231Z,24.71
2022-08-05T11:07:33.083Z,24.48
2022-08-05T11:10:27.546Z,24.78
2022-08-05T11:12:55.646Z,24.76
2022-08-05T11:16:00.873Z,23.83
2022-08-05T11:18:32.666Z,24.33
2022-08-05T11:21:02.982Z,24.34
2022-08-05T11:24:02.919Z,24.41
2022-08-05T11:26:34.856Z,24.16
2022-08-05T11:29:13.466Z,23.69
2022-08-05T11:31:58.906Z,23.79
2022-08-05T11:34:47.473Z,24.88
2022-08-05T11:38:26.563Z,25.12
2022-08-05T11:41:12.860Z,25.38
2022-08-05T11:44:07.307Z,25.42
2022-08-05T11:46:58.312Z,25.74
2022-08-05T11:49:33.866Z,25.70
2022-08-05T11:52:01.210Z,25.93
2022-08-05T11:54:33.633Z,24.97
2022-08-05T11:57:08.077Z,25.88
2022-08-05T11:59:50.642Z,25.70
2022-08-05T12:02:29.811Z,25.73
2022-08-05T12:05:00.086Z,25.31
2022-08-05T12:08:08.894Z,26.14
2022-08-05T12:10:22.713Z,25.73
2022-08-05T12:13:00.239Z,26.51
2022-08-05T12:15:38.032Z,26.82
2022-08-05T12:18:10.525Z,26.95
2022-08-05T12:20:41.317Z,27.48
2022-08-05T12:23:09.884Z,27.67
2022-08-05T12:25:53.810Z,27.44
2022-08-05T12:28:50.164Z,27.61
2022-08-05T12:31:23.173Z,27.41
2022-08-05T12:33:59.068Z,27.30
2022-08-05T12:36:28.265Z,26.96
2022-08-05T12:38:56.507Z,25.83
2022-08-05T12:41:23.091Z,25.94
2022-08-05T12:44:14.142Z,25.62
2022-08-05T12:46:45.720Z,25.37
2022-08-05T12:49:19.014Z,25.20
2022-08-05T12:52:13.976Z,25.16
2022-08-05T12:54:35.633Z,24.98
2022-08-05T12:57:09.569Z,24.64
2022-08-05T13:01:58.204Z,24.91
2022-08-05T13:02:41.378Z,24.85
2022-08-05T13:05:12.473Z,25.10
2022-08-05T13:07:59.816Z,25.02
2022-08-05T13:10:26.796Z,24.54
2022-08-05T13:12:58.115Z,24.98
2022-08-05T13:15:41.607Z,25.19
2022-08-05T13:18:18.795Z,25.20
2022-08-05T13:20:47.361Z,24.83
2022-08-05T13:23:16.317Z,25.47
2022-08-05T13:25:58.911Z,25.02
2022-08-05T13:28:26.875Z,24.99
2022-08-05T13:30:53.678Z,25.53
2022-08-05T13:34:22.767Z,25.69
2022-08-05T13:36:09.289Z,25.36
2022-08-05T13:38:42.121Z,26.18
2022-08-05T13:41:09.887Z,26.02
2022-08-05T13:43:45.341Z,26.43
2022-08-05T13:46:50.906Z,26.72
2022-08-05T13:49:10.198Z,26.77
2022-08-05T13:51:41.239Z,26.60
2022-08-05T13:54:12.560Z,26.48
2022-08-05T13:56:45.037Z,26.73
2022-08-05T13:59:19.477Z,27.15
2022-08-05T14:01:57.892Z,27.11
2022-08-05T14:04:54.652Z,27.09
2022-08-05T14:07:56.493Z,26.06
2022-08-05T14:10:28.841Z,26.97
2022-08-05T14:12:57.541Z,26.88
2022-08-05T14:16:07.072Z,27.16
2022-08-05T14:18:15.033Z,27.91
2022-08-05T14:20:47.346Z,28.35
2022-08-05T14:23:19.103Z,28.13
2022-08-05T14:25:53.243Z,27.93
2022-08-05T14:28:26.323Z,27.67
2022-08-05T14:30:53.939Z,28.13
2022-08-05T14:33:22.670Z,27.95
2022-08-05T14:35:51.745Z,28.06
2022-08-05T14:38:33.241Z,27.80
2022-08-05T14:41:06.016Z,28.22
2022-08-05T14:44:01.781Z,27.93
2022-08-05T14:46:21.398Z,27.14
2022-08-05T14:48:50.019Z,26.75
2022-08-05T14:51:17.535Z,26.46
2022-08-05T14:53:44.947Z,26.65
2022-08-05T14:56:12.000Z,26.75
2022-08-05T14:58:47.496Z,26.82
2022-08-05T15:01:47.124Z,27.46
2022-08-05T15:04:11.572Z,27.14
2022-08-05T15:06:38.967Z,26.80
2022-08-05T15:09:07.480Z,26.87
2022-08-05T15:11:53.254Z,26.95
2022-08-05T15:14:35.937Z,27.18
2022-08-05T15:17:20.863Z,27.20
2022-08-05T15:19:55.451Z,27.56
2022-08-05T15:22:22.161Z,27.50
2022-08-05T15:24:54.042Z,27.79
2022-08-05T15:27:20.501Z,27.79
2022-08-05T15:29:47.054Z,28.02
2022-08-05T15:32:16.539Z,27.98
2022-08-05T15:34:43.350Z,27.89
2022-08-05T15:37:15.642Z,27.74
2022-08-05T15:40:59.836Z,27.98
2022-08-05T15:42:54.401Z,27.22
2022-08-05T15:45:38.626Z,27.27
2022-08-05T15:48:05.628Z,27.47
2022-08-05T15:50:33.644Z,27.33
2022-08-05T15:53:05.212Z,27.13
2022-08-05T15:56:02.396Z,27.64
2022-08-05T15:58:19.483Z,26.44
2022-08-05T16:00:57.038Z,26.00
2022-08-05T16:03:41.185Z,26.70
2022-08-05T16:06:08.917Z,27.03
2022-08-05T16:08:38.102Z,27.48
2022-08-05T16:11:05.012Z,26.96
2022-08-05T16:13:31.940Z,27.26
2022-08-05T16:16:03.333Z,27.22
2022-08-05T16:18:30.785Z,27.37
2022-08-05T16:20:58.562Z,27.56
2022-08-05T16:23:28.350Z,26.83
2022-08-05T16:26:14.918Z,27.84
2022-08-05T16:28:41.899Z,28.00
2022-08-05T16:31:08.523Z,27.50
2022-08-05T16:33:41.666Z,28.30
2022-08-05T16:36:08.769Z,28.38
2022-08-05T16:38:35.265Z,27.80
2022-08-05T16:41:02.559Z,28.07
2022-08-05T16:43:48.929Z,28.04
2022-08-05T16:46:23.567Z,28.20
2022-08-05T16:48:51.217Z,27.74
2022-08-05T16:51:17.758Z,27.66
2022-08-05T16:54:03.990Z,27.61
2022-08-05T16:56:33.769Z,27.67
2022-08-05T16:59:07.749Z,27.51
2022-08-05T17:01:53.837Z,26.83
2022-08-05T17:04:23.929Z,27.17
2022-08-05T17:06:55.208Z,26.94
2022-08-05T17:09:21.651Z,26.96
2022-08-05T17:11:52.371Z,26.94
2022-08-05T17:14:34.200Z,26.68
2022-08-05T17:17:05.747Z,26.94
2022-08-05T17:19:32.298Z,26.73
2022-08-05T17:22:00.566Z,26.81
2022-08-05T17:24:35.216Z,26.57
2022-08-05T17:27:07.247Z,25.94
2022-08-05T17:29:40.907Z,26.16
2022-08-05T17:32:17.116Z,26.51
2022-08-05T17:34:48.191Z,26.05
2022-08-05T17:37:41.807Z,26.54
2022-08-05T17:40:10.831Z,26.29
2022-08-05T17:42:43.031Z,25.93
2022-08-05T17:45:20.399Z,26.23
2022-08-05T17:47:53.492Z,26.10
2022-08-05T17:50:29.594Z,26.04
2022-08-05T17:53:04.870Z,25.64
2022-08-05T17:55:37.931Z,25.72
2022-08-05T17:58:09.733Z,25.69
2022-08-05T18:00:39.874Z,25.63
2022-08-05T18:03:24.077Z,25.70
2022-08-05T18:06:04.395Z,25.52
2022-08-05T18:08:33.154Z,25.27
2022-08-05T18:11:00.279Z,25.29
2022-08-05T18:13:36.647Z,25.24
2022-08-05T18:16:13.498Z,25.30
2022-08-05T18:18:40.733Z,25.38
2022-08-05T18:21:13.390Z,25.03
2022-08-05T18:23:47.687Z,25.67
2022-08-05T18:26:14.618Z,25.12
2022-08-05T18:28:46.588Z,24.83
2022-08-05T18:31:15.926Z,25.17
2022-08-05T18:33:47.170Z,25.52
2022-08-05T18:36:17.019Z,25.31
2022-08-05T18:38:46.283Z,25.25
2022-08-05T18:41:55.882Z,25.02
2022-08-05T18:44:06.196Z,24.86
2022-08-05T18:46:34.421Z,24.69
2022-08-05T18:49:20.950Z,24.87
2022-08-05T18:52:08.322Z,24.38
2022-08-05T18:54:35.747Z,24.98
2022-08-05T18:57:02.547Z,24.80
2022-08-05T18:59:44.355Z,24.46
2022-08-05T19:02:28.086Z,24.37
2022-08-05T19:05:03.054Z,24.83
2022-08-05T19:07:45.846Z,24.20
2022-08-05T19:10:17.189Z,24.70
2022-08-05T19:12:43.816Z,23.92
2022-08-05T19:15:58.108Z,23.91
2022-08-05T19:18:09.090Z,24.27
2022-08-05T19:20:36.973Z,23.89
2022-08-05T19:23:08.215Z,23.29
2022-08-05T19:25:41.905Z,23.77
2022-08-05T19:28:10.466Z,23.59
2022-08-05T19:30:36.983Z,23.71
2022-08-05T19:33:04.659Z,23.64
2022-08-05T19:35:56.034Z,23.74
2022-08-05T19:38:24.054Z,23.56
2022-08-05T19:40:53.336Z,23.07
2022-08-05T19:44:04.667Z,23.26
2022-08-05T19:46:06.474Z,22.99
2022-08-05T19:48:44.018Z,23.30
2022-08-05T19:52:05.759Z,23.05
2022-08-05T19:54:12.881Z,23.33
2022-08-05T19:56:54.141Z,22.82
2022-08-05T19:59:21.656Z,23.10
2022-08-05T20:02:07.283Z,22.75
2022-08-05T20:04:33.799Z,22.68
2022-08-05T20:07:00.250Z,22.46
2022-08-05T20:09:28.579Z,23.13
2022-08-05T20:12:15.104Z,22.58
2022-08-05T20:14:41.910Z,22.73
2022-08-05T20:17:10.050Z,22.47
2022-08-05T20:19:42.624Z,22.39
2022-08-05T20:22:09.684Z,22.24
2022-08-05T20:24:36.333Z,22.56
2022-08-05T20:27:04.784Z,22.41
2022-08-05T20:29:38.427Z,22.19
2022-08-05T20:32:06.525Z,22.30
2022-08-05T20:34:33.022Z,22.33
2022-08-05T20:37:00.706Z,22.58
2022-08-05T20:39:36.712Z,22.69
2022-08-05T20:42:04.691Z,22.42
2022-08-05T20:44:33.077Z,22.32
2022-08-05T20:47:07.601Z,22.89
2022-08-05T20:49:39.694Z,22.57
2022-08-05T20:52:07.071Z,22.24
2022-08-05T20:54:42.747Z,22.43
2022-08-05T20:57:42.703Z,22.26
2022-08-05T21:00:21.155Z,22.58
2022-08-05T21:02:57.829Z,22.03
2022-08-05T21:05:24.547Z,22.47
2022-08-05T21:07:52.126Z,22.32
2022-08-05T21:10:19.020Z,22.13
2022-08-05T21:12:58.142Z,21.68
2022-08-05T21:15:33.806Z,21.97
2022-08-05T21:18:00.601Z,22.25
2022-08-05T21:20:32.900Z,21.83
2022-08-05T21:23:00.113Z,22.26
2022-08-05T21:25:33.973Z,21.60
2022-08-05T21:28:02.829Z,22.39
2022-08-05T21:30:29.315Z,22.20
2022-08-05T21:32:55.722Z,21.52
2022-08-05T21:35:29.794Z,21.97
2022-08-05T21:38:09.170Z,22.03
2022-08-05T21:40:36.040Z,21.34
2022-08-05T21:43:08.321Z,21.60
2022-08-05T21:45:51.654Z,21.59
2022-08-05T21:48:23.591Z,21.44
2022-08-05T21:50:53.216Z,21.38
2022-08-05T21:53:21.394Z,21.44
2022-08-05T21:56:05.321Z,21.70
2022-08-05T21:58:42.473Z,21.75
2022-08-05T22:01:24.913Z,21.64
2022-08-05T22:03:53.706Z,21.07
2022-08-05T22:06:34.805Z,21.46
2022-08-05T22:09:22.289Z,20.72
2022-08-05T22:11:54.961Z,21.04
2022-08-05T22:14:35.093Z,21.09
2022-08-05T22:17:06.726Z,19.45
2022-08-05T22:20:00.467Z,20.18
2022-08-05T22:22:26.985Z,20.02
2022-08-05T22:28:56.915Z,20.31
2022-08-05T22:31:25.048Z,20.22
2022-08-05T22:34:01.199Z,20.97
2022-08-05T22:39:40.944Z,20.51
2022-08-05T22:42:10.077Z,19.74
2022-08-05T22:44:39.525Z,20.74
2022-08-05T22:47:06.886Z,20.05
2022-08-05T22:50:17.874Z,20.91
2022-08-05T22:52:30.479Z,20.70
2022-08-05T22:54:59.487Z,20.96
2022-08-05T22:57:26.553Z,20.48
2022-08-05T22:59:54.232Z,20.39
2022-08-05T23:02:29.363Z,20.73
2022-08-05T23:04:57.905Z,20.45
2022-08-05T23:07:28.618Z,20.62
2022-08-05T23:10:01.177Z,20.81
2022-08-05T23:12:32.604Z,20.64
2022-08-05T23:15:04.033Z,20.60
2022-08-05T23:17:59.578Z,19.49
2022-08-05T23:20:23.453Z,19.88
2022-08-05T23:22:51.052Z,19.60
2022-08-05T23:25:50.961Z,20.14
2022-08-05T23:28:09.832Z,20.07
2022-08-05T23:30:40.269Z,18.97
2022-08-05T23:33:16.008Z,20.07
2022-08-05T23:35:45.412Z,19.99
2022-08-05T23:38:12.023Z,19.70
2022-08-05T23:40:38.678Z,19.31
2022-08-05T23:43:24.260Z,20.03
2022-08-05T23:45:52.338Z,19.52
2022-08-05T23:48:19.750Z,20.15
2022-08-05T23:50:46.283Z,20.21
2022-08-05T23:53:22.816Z,20.22
2022-08-05T23:55:49.902Z,20.32
2022-08-05T23:58:31.665Z,20.35
